Balmorhea, TX (79718)

7:29 PM CDT on August 26, 2016 (GMT -0500)
Pecos Municipal | | Change Station

Elev 2612 ft 31.38 °N, 103.51 °W | Updated 14 minutes ago

Scattered Clouds
Scattered Clouds
82 °F
Feels Like 83 °F
N
13
Wind Variable Wind from ESE
Gusts 16 mph

Today
High -- | Low -- °F
--% Chance of Precip.
Yesterday
High -- | Low -- °F
Precip. -- in
Pressure 29.99 in
Visibility 10.0 miles
Clouds Scattered Clouds 12000 ft
Heat Index 83 °F
Dew Point 63 °F
Humidity 52%
Rainfall 0.02 in
Snow Depth Not available.
7:27 AM 8:24 PM
Waning Crescent, 30% visible
METAR KPEQ 270015Z AUTO 11011G14KT 10SM SCT120 28/17 A2999 RMK AO2 T02790171
Pressure 29.99 in
Visibility 10.0 miles
Clouds Scattered Clouds 12000 ft
Heat Index 83 °F
Dew Point 63 °F
Humidity 52%
Rainfall 0.02 in
Snow Depth Not available.
7:27 AM 8:24 PM
Waning Crescent, 30% visible
METAR KPEQ 270015Z AUTO 11011G14KT 10SM SCT120 28/17 A2999 RMK AO2 T02790171

10-Day Weather Forecast

Almanac

Astronomy

Aug. 26, 2016 Rise Set
Actual Time
Civil Twilight
Nautical Twilight
Astronomical Twilight
Moon
Length of Visible Light
Length of Day
Tomorrow will be .
, % of the Moon is Illuminated

Today's Extremes

State Highs State Lows

Community

WunderPhotos

Upload Photos

1,935,257 photos uploaded!

WunderBlog® & News

Nearby

Air Quality

  Air Quality AQ Index Pollutant
Not available.

Snow Depth

Station Depth Elevation

Earthquake Activity

City Distance Mag. Time & Date
Minimum magnitude displayed is 2.5.

Coastal Water Temperatures

Place Temperature

Stations

Nearby Weather Stations

Station Location Temp. Windchill Dew Point Humidity Wind Precip. Elev Updated Type
                   

Watches & Warnings

There are currently no watches in effect.